Arenas Valley, NM

11:35 AM MST on February 13, 2016 (GMT -0700)
Cedar Hills | | Change Station
CLOSE
Current Station
Personal Weather Station
Location: Silver City, NM
Elevation: 5991 ft
Nearby Weather Stations

Elev 5991 ft 32.77 °N, 108.23 °W | Updated 35 minutes ago

Clear
Clear
64.8 °F
Feels Like 64.8 °F
N
4.0
Wind Variable Wind from SSW
Gusts 15.0 mph

Today
High -- | Low -- °F
--% Chance of Precip.
Yesterday
High -- | Low -- °F
Precip. -- in
Pressure 30.15 in
Visibility 10.0 miles
Clouds Clear
Dew Point 20 °F
Humidity 18%
Rainfall 0.00 in
Snow Depth Not available.
6:58 AM 5:56 PM
Waxing Crescent, 33% visible
METAR KDMN 131753Z AUTO 00000KT 10SM CLR 16/M09 A3025 RMK AO2 SLP209 T01611089 10167 20000 58003 TSNO
Pressure 30.15 in
Visibility 10.0 miles
Clouds Clear
Dew Point 20 °F
Humidity 18%
Rainfall 0.00 in
Snow Depth Not available.
6:58 AM 5:56 PM
Waxing Crescent, 33% visible
METAR KDMN 131753Z AUTO 00000KT 10SM CLR 16/M09 A3025 RMK AO2 SLP209 T01611089 10167 20000 58003 TSNO

10-Day Weather Forecast

Almanac

Astronomy

Feb. 13, 2016 Rise Set
Actual Time
Civil Twilight
Nautical Twilight
Astronomical Twilight
Moon
Length of Visible Light
Length of Day
Tomorrow will be .
, % of the Moon is Illuminated

Today's Extremes

State Highs State Lows

Community

WunderPhotos

Upload Photos

1,892,633 photos uploaded!

WunderBlog® & News

Nearby

Air Quality

  Air Quality AQ Index Pollutant
Not available.

Snow Depth

Station Depth Elevation

Earthquake Activity

City Distance Mag. Time & Date
Minimum magnitude displayed is 2.5.

Coastal Water Temperatures

Place Temperature

Stations

Nearby Weather Stations

Station Location Temp. Windchill Dew Point Humidity Wind Precip. Elev Updated Type
                   

Watches & Warnings

There are currently no watches in effect.